This is the latest recevied weather packets stored in our database for station/object N4RCT. If no packets are shown the sender has not sent any weather packets the latest 10 day(s).
| Time | Temp. | Humidity | Pressure | Rain* | Wind** | Luminosity | Snow |
|---|---|---|---|---|---|---|---|
| 1777909878 | 21.11° C | 52% | 1016.7 hPa | 0 mm | - | 750 W/m² | - |
| 1777909575 | 21.11° C | 52% | 1016.5 hPa | 0 mm | - | 740 W/m² | - |
| 1777909272 | 21.11° C | 53% | 1016.5 hPa | 0 mm | - | 782 W/m² | - |
| 1777908970 | 20.56° C | 53% | 1016.7 hPa | 0 mm | - | 784 W/m² | - |
| 1777908668 | 20.56° C | 56% | 1016.7 hPa | 0 mm | - | 794 W/m² | - |
| 1777908365 | 20° C | 55% | 1016.7 hPa | 0 mm | - | 783 W/m² | - |
| 1777908061 | 20° C | 56% | 1016.6 hPa | 0 mm | - | 782 W/m² | - |
| 1777907756 | 19.44° C | 58% | 1016.8 hPa | 0 mm | - | 776 W/m² | - |
| 1777907451 | 19.44° C | 60% | 1016.8 hPa | 0 mm | - | 795 W/m² | - |
| 1777907149 | 20° C | 57% | 1016.7 hPa | 0 mm | - | 805 W/m² | - |
| 1777906846 | 20° C | 56% | 1017 hPa | 0 mm | - | 804 W/m² | - |
| 1777906544 | 18.89° C | 59% | 1017.2 hPa | 0 mm | - | 808 W/m² | - |
| 1777906239 | 18.89° C | 59% | 1017 hPa | 0 mm | - | 795 W/m² | - |
| 1777905935 | 18.33° C | 57% | 1017 hPa | 0 mm | - | 760 W/m² | - |
| 1777905632 | 17.78° C | 60% | 1017.2 hPa | 0 mm | - | 744 W/m² | - |
| 1777905329 | 17.78° C | 61% | 1017.1 hPa | 0 mm | - | 686 W/m² | - |
| 1777905027 | 18.33° C | 64% | 1017.1 hPa | 0 mm | - | 704 W/m² | - |
| 1777904724 | 18.33° C | 66% | 1017.1 hPa | 0 mm | - | 697 W/m² | - |
| 1777904421 | 17.22° C | 69% | 1017.4 hPa | 0 mm | - | 663 W/m² | - |
| 1777904118 | 17.22° C | 68% | 1017.3 hPa | 0 mm | - | 644 W/m² | - |
| 1777903815 | 16.67° C | 66% | 1017.3 hPa | 0 mm | - | 619 W/m² | - |
| 1777903511 | 16.67° C | 68% | 1017.4 hPa | 0 mm | - | 576 W/m² | - |
| 1777903208 | 16.67° C | 70% | 1017.1 hPa | 0 mm | - | 549 W/m² | - |
| 1777902904 | 16.11° C | 67% | 1017.4 hPa | 0 mm | - | 498 W/m² | - |
| 1777902601 | 15.56° C | 67% | 1017.3 hPa | 0 mm | - | 527 W/m² | - |
* Rain latest hour (hover to see other rain measurements)
** Current wind speed in m/s (hover to see current wind gust speed)